<?xml version="1.0" encoding="UTF-8" standalone="no" ?>
<gpx xmlns="http://www.topografix.com/GPX/1/1" xmlns:xsi="http://www.w3.org/2001/XMLSchema-instance" xsi:schemaLocation="http://www.topografix.com/GPX/1/1 http://www.topografix.com/GPX/1/1/gpx.xsd" version="1.1" creator="VisuGPX - https://www.visugpx.com">
  <metadata>
    <name>Le Rocher du Caire par la voie des échelles (Drôme)</name>
    <desc><![CDATA[Cotation FFR E: 3 T: 5 R:5 IBP 73
La randonnée du Rocher du Caire par la voie des échelles est une des sorties les plus spectaculaires des Baronnies provençales. . Ce parcours comporte des sections vertigineuses ou il faudra gravir des échelles. 
Le sentier des échelles doit être parcouru à la montée uniquement. La descente y est interdite par arrêté municipal.]]></desc>
  </metadata>
  <wpt lat="44.41487" lon="5.35548">
    <ele>447.5</ele>
    <name><![CDATA[Se garer sur la place du village]]></name>
  </wpt>
  <wpt lat="44.41396" lon="5.34063">
    <ele>435.8</ele>
    <name><![CDATA[Carrefour sentier]]></name>
  </wpt>
  <wpt lat="44.41687" lon="5.3496">
    <ele>747.2</ele>
    <name><![CDATA[Croix du Caire]]></name>
  </wpt>
  <wpt lat="44.4349" lon="5.35303">
    <ele>650.6</ele>
    <name><![CDATA[Virage piste]]></name>
  </wpt>
  <wpt lat="44.42387" lon="5.35243">
    <ele>648.7</ele>
    <name><![CDATA[Ravin de Clarissane]]></name>
  </wpt>
  <wpt lat="44.41487" lon="5.35548">
    <ele>447.5</ele>
    <name><![CDATA[Place du village]]></name>
  </wpt>
  <wpt lat="44.4149" lon="5.34122">
    <ele>502</ele>
    <name><![CDATA[échelles]]></name>
    <type><![CDATA[danger]]></type>
  </wpt>
  <trk>
    <name><![CDATA[Le Rocher du Caire]]></name>
    <extensions>
      <line xmlns="http://www.topografix.com/GPX/gpx_style/0/2">
        <color>0000FF</color>
        <opacity>1</opacity>
        <width>4</width>
      </line>
    </extensions>
    <trkseg>
      <trkpt lat="44.41487" lon="5.35548">
        <ele>448</ele>
        <time>2026-05-17T19:40:25.000Z</time>
      </trkpt>
      <trkpt lat="44.41442" lon="5.35535">
        <ele>446</ele>
        <time>2026-05-17T19:41:17.000Z</time>
      </trkpt>
      <trkpt lat="44.41429" lon="5.35521">
        <ele>446.1</ele>
      </trkpt>
      <trkpt lat="44.4136" lon="5.3543">
        <ele>445</ele>
        <time>2026-05-17T19:43:24.000Z</time>
      </trkpt>
      <trkpt lat="44.41204" lon="5.35173">
        <ele>443</ele>
        <time>2026-05-17T19:48:00.000Z</time>
      </trkpt>
      <trkpt lat="44.41173" lon="5.35066">
        <ele>442</ele>
        <time>2026-05-17T19:49:34.000Z</time>
      </trkpt>
      <trkpt lat="44.41185" lon="5.3493">
        <ele>441</ele>
        <time>2026-05-17T19:51:26.000Z</time>
      </trkpt>
      <trkpt lat="44.41222" lon="5.34835">
        <ele>441</ele>
        <time>2026-05-17T19:52:54.000Z</time>
      </trkpt>
      <trkpt lat="44.41282" lon="5.34722">
        <ele>446</ele>
        <time>2026-05-17T19:55:41.000Z</time>
      </trkpt>
      <trkpt lat="44.41327" lon="5.34573">
        <ele>450</ele>
        <time>2026-05-17T19:58:34.000Z</time>
      </trkpt>
      <trkpt lat="44.41313" lon="5.34403">
        <ele>449</ele>
        <time>2026-05-17T20:00:55.000Z</time>
      </trkpt>
      <trkpt lat="44.41323" lon="5.34241">
        <ele>438</ele>
        <time>2026-05-17T20:03:08.000Z</time>
      </trkpt>
      <trkpt lat="44.41396" lon="5.34063">
        <ele>435</ele>
        <time>2026-05-17T20:05:56.000Z</time>
      </trkpt>
      <trkpt lat="44.41439" lon="5.34099">
        <ele>461</ele>
        <time>2026-05-17T20:11:21.000Z</time>
      </trkpt>
      <trkpt lat="44.41472" lon="5.34082">
        <ele>479</ele>
        <time>2026-05-17T20:15:06.000Z</time>
      </trkpt>
      <trkpt lat="44.4148" lon="5.3414">
        <ele>496</ele>
        <time>2026-05-17T20:18:49.000Z</time>
      </trkpt>
      <trkpt lat="44.41516" lon="5.34154">
        <ele>540</ele>
        <time>2026-05-17T20:27:04.000Z</time>
      </trkpt>
      <trkpt lat="44.41527" lon="5.34128">
        <ele>558</ele>
        <time>2026-05-17T20:30:34.000Z</time>
      </trkpt>
      <trkpt lat="44.41586" lon="5.34277">
        <ele>620</ele>
        <time>2026-05-17T20:43:31.000Z</time>
      </trkpt>
      <trkpt lat="44.41605" lon="5.34239">
        <ele>641</ele>
        <time>2026-05-17T20:47:45.000Z</time>
      </trkpt>
      <trkpt lat="44.41619" lon="5.34213">
        <ele>653</ele>
        <time>2026-05-17T20:50:15.000Z</time>
      </trkpt>
      <trkpt lat="44.41656" lon="5.34218">
        <ele>676</ele>
        <time>2026-05-17T20:54:54.000Z</time>
      </trkpt>
      <trkpt lat="44.41677" lon="5.34276">
        <ele>694</ele>
        <time>2026-05-17T20:58:52.000Z</time>
      </trkpt>
      <trkpt lat="44.41667" lon="5.34378">
        <ele>708</ele>
        <time>2026-05-17T21:02:40.000Z</time>
      </trkpt>
      <trkpt lat="44.41584" lon="5.34491">
        <ele>718</ele>
        <time>2026-05-17T21:06:35.000Z</time>
      </trkpt>
      <trkpt lat="44.41564" lon="5.34532">
        <ele>720</ele>
        <time>2026-05-17T21:07:36.000Z</time>
      </trkpt>
      <trkpt lat="44.41558" lon="5.34615">
        <ele>722</ele>
        <time>2026-05-17T21:09:05.000Z</time>
      </trkpt>
      <trkpt lat="44.41565" lon="5.34668">
        <ele>731</ele>
        <time>2026-05-17T21:11:21.000Z</time>
      </trkpt>
      <trkpt lat="44.41562" lon="5.34735">
        <ele>739</ele>
        <time>2026-05-17T21:13:39.000Z</time>
      </trkpt>
      <trkpt lat="44.41558" lon="5.34808">
        <ele>742</ele>
        <time>2026-05-17T21:15:10.000Z</time>
      </trkpt>
      <trkpt lat="44.41565" lon="5.3485">
        <ele>750</ele>
        <time>2026-05-17T21:17:07.000Z</time>
      </trkpt>
      <trkpt lat="44.41569" lon="5.34892">
        <ele>757</ele>
        <time>2026-05-17T21:18:53.000Z</time>
      </trkpt>
      <trkpt lat="44.4158" lon="5.34908">
        <ele>758</ele>
        <time>2026-05-17T21:19:21.000Z</time>
      </trkpt>
      <trkpt lat="44.41608" lon="5.34929">
        <ele>756</ele>
        <time>2026-05-17T21:19:58.000Z</time>
      </trkpt>
      <trkpt lat="44.41641" lon="5.34934">
        <ele>756</ele>
        <time>2026-05-17T21:20:35.000Z</time>
      </trkpt>
      <trkpt lat="44.41659" lon="5.34949">
        <ele>751</ele>
        <time>2026-05-17T21:20:59.000Z</time>
      </trkpt>
      <trkpt lat="44.41687" lon="5.3496">
        <ele>751</ele>
        <time>2026-05-17T21:21:33.000Z</time>
      </trkpt>
      <trkpt lat="44.41777" lon="5.34976">
        <ele>771</ele>
        <time>2026-05-17T21:26:42.000Z</time>
      </trkpt>
      <trkpt lat="44.41842" lon="5.34976">
        <ele>778</ele>
        <time>2026-05-17T21:29:08.000Z</time>
      </trkpt>
      <trkpt lat="44.41874" lon="5.34965">
        <ele>784</ele>
        <time>2026-05-17T21:30:48.000Z</time>
      </trkpt>
      <trkpt lat="44.41921" lon="5.3497">
        <ele>787</ele>
        <time>2026-05-17T21:32:13.000Z</time>
      </trkpt>
      <trkpt lat="44.41964" lon="5.3496">
        <ele>797</ele>
        <time>2026-05-17T21:34:46.000Z</time>
      </trkpt>
      <trkpt lat="44.42014" lon="5.34976">
        <ele>796</ele>
        <time>2026-05-17T21:35:45.000Z</time>
      </trkpt>
      <trkpt lat="44.42076" lon="5.34965">
        <ele>799</ele>
        <time>2026-05-17T21:37:26.000Z</time>
      </trkpt>
      <trkpt lat="44.42103" lon="5.34972">
        <ele>793.1</ele>
        <time>2026-05-17T21:38:11.000Z</time>
      </trkpt>
      <trkpt lat="44.42109" lon="5.34965">
        <ele>795.6</ele>
      </trkpt>
      <trkpt lat="44.42114" lon="5.34963">
        <ele>796.1</ele>
      </trkpt>
      <trkpt lat="44.42116" lon="5.34955">
        <ele>799.8</ele>
      </trkpt>
      <trkpt lat="44.4212" lon="5.3495">
        <ele>802.2</ele>
      </trkpt>
      <trkpt lat="44.42126" lon="5.34947">
        <ele>803.5</ele>
      </trkpt>
      <trkpt lat="44.42131" lon="5.34947">
        <ele>803.6</ele>
      </trkpt>
      <trkpt lat="44.42137" lon="5.34943">
        <ele>805.2</ele>
      </trkpt>
      <trkpt lat="44.42141" lon="5.34944">
        <ele>805.1</ele>
      </trkpt>
      <trkpt lat="44.42144" lon="5.3495">
        <ele>802.3</ele>
        <time>2026-05-17T21:40:51.000Z</time>
      </trkpt>
      <trkpt lat="44.4215" lon="5.34953">
        <ele>800.9</ele>
      </trkpt>
      <trkpt lat="44.42155" lon="5.34959">
        <ele>797.4</ele>
      </trkpt>
      <trkpt lat="44.42157" lon="5.34957">
        <ele>798.8</ele>
      </trkpt>
      <trkpt lat="44.42161" lon="5.34957">
        <ele>798.8</ele>
      </trkpt>
      <trkpt lat="44.42164" lon="5.34959">
        <ele>797.8</ele>
      </trkpt>
      <trkpt lat="44.42168" lon="5.34954">
        <ele>800.6</ele>
      </trkpt>
      <trkpt lat="44.42177" lon="5.34953">
        <ele>801.7</ele>
      </trkpt>
      <trkpt lat="44.42187" lon="5.34948">
        <ele>804.8</ele>
        <time>2026-05-17T21:41:53.000Z</time>
      </trkpt>
      <trkpt lat="44.42193" lon="5.34945">
        <ele>806.5</ele>
      </trkpt>
      <trkpt lat="44.42198" lon="5.34945">
        <ele>806.7</ele>
      </trkpt>
      <trkpt lat="44.42205" lon="5.34948">
        <ele>805.5</ele>
      </trkpt>
      <trkpt lat="44.4221" lon="5.34948">
        <ele>805.5</ele>
      </trkpt>
      <trkpt lat="44.42215" lon="5.34946">
        <ele>806.8</ele>
      </trkpt>
      <trkpt lat="44.42219" lon="5.34945">
        <ele>807.5</ele>
      </trkpt>
      <trkpt lat="44.42224" lon="5.34946">
        <ele>806.9</ele>
      </trkpt>
      <trkpt lat="44.42232" lon="5.34947">
        <ele>806.1</ele>
      </trkpt>
      <trkpt lat="44.42236" lon="5.3495">
        <ele>804.4</ele>
      </trkpt>
      <trkpt lat="44.42241" lon="5.34949">
        <ele>804.8</ele>
      </trkpt>
      <trkpt lat="44.42244" lon="5.34949">
        <ele>804.5</ele>
      </trkpt>
      <trkpt lat="44.42254" lon="5.34952">
        <ele>803.1</ele>
      </trkpt>
      <trkpt lat="44.42267" lon="5.34952">
        <ele>803.7</ele>
        <time>2026-05-17T21:43:23.000Z</time>
      </trkpt>
      <trkpt lat="44.42273" lon="5.34951">
        <ele>804.3</ele>
      </trkpt>
      <trkpt lat="44.42278" lon="5.34948">
        <ele>805</ele>
      </trkpt>
      <trkpt lat="44.42283" lon="5.34943">
        <ele>807.9</ele>
      </trkpt>
      <trkpt lat="44.42285" lon="5.34943">
        <ele>808.5</ele>
      </trkpt>
      <trkpt lat="44.42288" lon="5.34944">
        <ele>808.9</ele>
      </trkpt>
      <trkpt lat="44.42292" lon="5.34948">
        <ele>809.1</ele>
      </trkpt>
      <trkpt lat="44.42298" lon="5.34949">
        <ele>810.5</ele>
      </trkpt>
      <trkpt lat="44.42301" lon="5.34946">
        <ele>812.1</ele>
        <time>2026-05-17T21:47:41.000Z</time>
      </trkpt>
      <trkpt lat="44.42308" lon="5.34947">
        <ele>814.4</ele>
      </trkpt>
      <trkpt lat="44.42313" lon="5.34953">
        <ele>814.2</ele>
      </trkpt>
      <trkpt lat="44.42317" lon="5.34954">
        <ele>815.2</ele>
      </trkpt>
      <trkpt lat="44.42318" lon="5.34952">
        <ele>816.6</ele>
      </trkpt>
      <trkpt lat="44.42322" lon="5.34951">
        <ele>818.4</ele>
      </trkpt>
      <trkpt lat="44.42324" lon="5.34951">
        <ele>818.9</ele>
      </trkpt>
      <trkpt lat="44.42329" lon="5.34952">
        <ele>820.4</ele>
      </trkpt>
      <trkpt lat="44.42334" lon="5.34954">
        <ele>821.2</ele>
      </trkpt>
      <trkpt lat="44.42337" lon="5.34953">
        <ele>822.2</ele>
      </trkpt>
      <trkpt lat="44.42339" lon="5.34955">
        <ele>821.1</ele>
      </trkpt>
      <trkpt lat="44.42345" lon="5.34951">
        <ele>824</ele>
      </trkpt>
      <trkpt lat="44.42355" lon="5.34952">
        <ele>824.6</ele>
      </trkpt>
      <trkpt lat="44.42358" lon="5.34954">
        <ele>823.8</ele>
      </trkpt>
      <trkpt lat="44.42366" lon="5.34953">
        <ele>824.8</ele>
      </trkpt>
      <trkpt lat="44.42375" lon="5.3495">
        <ele>827.3</ele>
      </trkpt>
      <trkpt lat="44.42382" lon="5.34944">
        <ele>831.2</ele>
        <time>2026-05-17T21:50:08.000Z</time>
      </trkpt>
      <trkpt lat="44.42391" lon="5.34939">
        <ele>832.7</ele>
      </trkpt>
      <trkpt lat="44.42394" lon="5.34935">
        <ele>834</ele>
      </trkpt>
      <trkpt lat="44.42399" lon="5.34935">
        <ele>834</ele>
      </trkpt>
      <trkpt lat="44.42409" lon="5.34933">
        <ele>835.1</ele>
      </trkpt>
      <trkpt lat="44.42412" lon="5.34927">
        <ele>836.8</ele>
      </trkpt>
      <trkpt lat="44.42415" lon="5.34925">
        <ele>837.5</ele>
        <time>2026-05-17T21:52:20.000Z</time>
      </trkpt>
      <trkpt lat="44.42421" lon="5.34925">
        <ele>838.1</ele>
      </trkpt>
      <trkpt lat="44.42427" lon="5.3493">
        <ele>837.3</ele>
      </trkpt>
      <trkpt lat="44.42433" lon="5.3493">
        <ele>837.9</ele>
      </trkpt>
      <trkpt lat="44.42439" lon="5.34928">
        <ele>839.2</ele>
      </trkpt>
      <trkpt lat="44.42443" lon="5.34929">
        <ele>839.4</ele>
      </trkpt>
      <trkpt lat="44.42455" lon="5.34936">
        <ele>838.6</ele>
      </trkpt>
      <trkpt lat="44.42459" lon="5.34935">
        <ele>839.3</ele>
      </trkpt>
      <trkpt lat="44.42465" lon="5.34932">
        <ele>840.9</ele>
      </trkpt>
      <trkpt lat="44.42468" lon="5.34928">
        <ele>842.4</ele>
      </trkpt>
      <trkpt lat="44.42471" lon="5.34928">
        <ele>842.8</ele>
      </trkpt>
      <trkpt lat="44.4248" lon="5.34924">
        <ele>844.8</ele>
      </trkpt>
      <trkpt lat="44.42492" lon="5.34921">
        <ele>846.8</ele>
      </trkpt>
      <trkpt lat="44.42496" lon="5.34918">
        <ele>848.1</ele>
      </trkpt>
      <trkpt lat="44.42502" lon="5.34917">
        <ele>849.1</ele>
      </trkpt>
      <trkpt lat="44.42513" lon="5.34917">
        <ele>850.4</ele>
        <time>2026-05-17T21:56:10.000Z</time>
      </trkpt>
      <trkpt lat="44.4252" lon="5.34912">
        <ele>851.4</ele>
      </trkpt>
      <trkpt lat="44.42526" lon="5.34912">
        <ele>852.1</ele>
      </trkpt>
      <trkpt lat="44.42527" lon="5.34914">
        <ele>852.1</ele>
      </trkpt>
      <trkpt lat="44.42539" lon="5.34913">
        <ele>853.2</ele>
      </trkpt>
      <trkpt lat="44.42548" lon="5.34911">
        <ele>854</ele>
      </trkpt>
      <trkpt lat="44.42552" lon="5.34908">
        <ele>854.7</ele>
      </trkpt>
      <trkpt lat="44.42558" lon="5.34905">
        <ele>855.2</ele>
      </trkpt>
      <trkpt lat="44.4256" lon="5.34907">
        <ele>855</ele>
        <time>2026-05-17T21:57:45.000Z</time>
      </trkpt>
      <trkpt lat="44.42566" lon="5.34905">
        <ele>854.9</ele>
      </trkpt>
      <trkpt lat="44.42569" lon="5.34908">
        <ele>854.4</ele>
      </trkpt>
      <trkpt lat="44.42573" lon="5.34908">
        <ele>854.3</ele>
      </trkpt>
      <trkpt lat="44.42584" lon="5.34902">
        <ele>855.2</ele>
      </trkpt>
      <trkpt lat="44.42608" lon="5.34899">
        <ele>858.4</ele>
      </trkpt>
      <trkpt lat="44.42616" lon="5.34897">
        <ele>859.9</ele>
      </trkpt>
      <trkpt lat="44.4262" lon="5.34899">
        <ele>859.8</ele>
        <time>2026-05-17T22:00:24.000Z</time>
      </trkpt>
      <trkpt lat="44.42622" lon="5.34896">
        <ele>861</ele>
      </trkpt>
      <trkpt lat="44.42633" lon="5.34895">
        <ele>862.5</ele>
      </trkpt>
      <trkpt lat="44.42646" lon="5.34895">
        <ele>863.3</ele>
      </trkpt>
      <trkpt lat="44.42651" lon="5.349">
        <ele>862.2</ele>
      </trkpt>
      <trkpt lat="44.4268" lon="5.34897">
        <ele>864.8</ele>
      </trkpt>
      <trkpt lat="44.42688" lon="5.34894">
        <ele>866.3</ele>
      </trkpt>
      <trkpt lat="44.427" lon="5.34892">
        <ele>867.7</ele>
      </trkpt>
      <trkpt lat="44.42719" lon="5.34887">
        <ele>870.7</ele>
      </trkpt>
      <trkpt lat="44.42735" lon="5.3488">
        <ele>872.6</ele>
      </trkpt>
      <trkpt lat="44.42741" lon="5.34879">
        <ele>873.2</ele>
      </trkpt>
      <trkpt lat="44.42743" lon="5.34882">
        <ele>873.4</ele>
        <time>2026-05-17T22:04:54.000Z</time>
      </trkpt>
      <trkpt lat="44.4276" lon="5.34881">
        <ele>875</ele>
      </trkpt>
      <trkpt lat="44.42764" lon="5.34877">
        <ele>875.6</ele>
      </trkpt>
      <trkpt lat="44.42777" lon="5.34877">
        <ele>876.7</ele>
      </trkpt>
      <trkpt lat="44.42784" lon="5.34876">
        <ele>876.8</ele>
      </trkpt>
      <trkpt lat="44.42797" lon="5.34873">
        <ele>877.5</ele>
      </trkpt>
      <trkpt lat="44.42801" lon="5.34874">
        <ele>877.2</ele>
      </trkpt>
      <trkpt lat="44.42806" lon="5.34874">
        <ele>877.2</ele>
      </trkpt>
      <trkpt lat="44.42815" lon="5.34869">
        <ele>877.6</ele>
      </trkpt>
      <trkpt lat="44.42822" lon="5.3487">
        <ele>876.9</ele>
      </trkpt>
      <trkpt lat="44.42836" lon="5.34866">
        <ele>876.9</ele>
        <time>2026-05-17T22:08:13.000Z</time>
      </trkpt>
      <trkpt lat="44.4285" lon="5.34866">
        <ele>874.7</ele>
      </trkpt>
      <trkpt lat="44.42865" lon="5.34868">
        <ele>870.7</ele>
      </trkpt>
      <trkpt lat="44.4287" lon="5.34867">
        <ele>870.3</ele>
      </trkpt>
      <trkpt lat="44.42873" lon="5.34866">
        <ele>871</ele>
      </trkpt>
      <trkpt lat="44.42879" lon="5.34859">
        <ele>874.1</ele>
      </trkpt>
      <trkpt lat="44.42883" lon="5.34845">
        <ele>879.2</ele>
      </trkpt>
      <trkpt lat="44.4289" lon="5.34842">
        <ele>880.3</ele>
      </trkpt>
      <trkpt lat="44.42898" lon="5.34835">
        <ele>882.5</ele>
      </trkpt>
      <trkpt lat="44.42911" lon="5.34831">
        <ele>882.8</ele>
      </trkpt>
      <trkpt lat="44.42916" lon="5.34831">
        <ele>882.7</ele>
      </trkpt>
      <trkpt lat="44.42921" lon="5.34828">
        <ele>882.1</ele>
      </trkpt>
      <trkpt lat="44.42924" lon="5.34825">
        <ele>882.3</ele>
      </trkpt>
      <trkpt lat="44.42928" lon="5.34825">
        <ele>881.5</ele>
      </trkpt>
      <trkpt lat="44.4293" lon="5.34824">
        <ele>881.6</ele>
      </trkpt>
      <trkpt lat="44.42934" lon="5.34823">
        <ele>881.2</ele>
      </trkpt>
      <trkpt lat="44.42944" lon="5.34822">
        <ele>879.8</ele>
      </trkpt>
      <trkpt lat="44.42953" lon="5.34819">
        <ele>879.1</ele>
      </trkpt>
      <trkpt lat="44.42968" lon="5.3481">
        <ele>882</ele>
        <time>2026-05-17T22:11:40.000Z</time>
      </trkpt>
      <trkpt lat="44.42976" lon="5.34808">
        <ele>882.9</ele>
      </trkpt>
      <trkpt lat="44.42984" lon="5.34808">
        <ele>882.5</ele>
      </trkpt>
      <trkpt lat="44.42987" lon="5.34809">
        <ele>880.7</ele>
      </trkpt>
      <trkpt lat="44.43" lon="5.34806">
        <ele>882.7</ele>
      </trkpt>
      <trkpt lat="44.43016" lon="5.34806">
        <ele>884</ele>
      </trkpt>
      <trkpt lat="44.43024" lon="5.34807">
        <ele>883.1</ele>
      </trkpt>
      <trkpt lat="44.43032" lon="5.34799">
        <ele>889.2</ele>
      </trkpt>
      <trkpt lat="44.43039" lon="5.34795">
        <ele>892.4</ele>
      </trkpt>
      <trkpt lat="44.4305" lon="5.34795">
        <ele>894.1</ele>
      </trkpt>
      <trkpt lat="44.43054" lon="5.34794">
        <ele>895.1</ele>
      </trkpt>
      <trkpt lat="44.43061" lon="5.34792">
        <ele>896.4</ele>
        <time>2026-05-17T22:14:37.000Z</time>
      </trkpt>
      <trkpt lat="44.43064" lon="5.34792">
        <ele>896.9</ele>
      </trkpt>
      <trkpt lat="44.43067" lon="5.34787">
        <ele>899.7</ele>
      </trkpt>
      <trkpt lat="44.43072" lon="5.34782">
        <ele>902.3</ele>
      </trkpt>
      <trkpt lat="44.43074" lon="5.34784">
        <ele>901.5</ele>
      </trkpt>
      <trkpt lat="44.43093" lon="5.34777">
        <ele>906.2</ele>
        <time>2026-05-17T22:16:12.000Z</time>
      </trkpt>
      <trkpt lat="44.43098" lon="5.34776">
        <ele>906.9</ele>
      </trkpt>
      <trkpt lat="44.43104" lon="5.34779">
        <ele>906.6</ele>
      </trkpt>
      <trkpt lat="44.43111" lon="5.34774">
        <ele>908.6</ele>
      </trkpt>
      <trkpt lat="44.43115" lon="5.34773">
        <ele>908.9</ele>
      </trkpt>
      <trkpt lat="44.43121" lon="5.34781">
        <ele>906.6</ele>
      </trkpt>
      <trkpt lat="44.43124" lon="5.34782">
        <ele>906.1</ele>
      </trkpt>
      <trkpt lat="44.43127" lon="5.34777">
        <ele>908.7</ele>
      </trkpt>
      <trkpt lat="44.43135" lon="5.34777">
        <ele>909</ele>
      </trkpt>
      <trkpt lat="44.43143" lon="5.34779">
        <ele>908.6</ele>
      </trkpt>
      <trkpt lat="44.43159" lon="5.34785">
        <ele>905.6</ele>
      </trkpt>
      <trkpt lat="44.43163" lon="5.34785">
        <ele>905.2</ele>
      </trkpt>
      <trkpt lat="44.43178" lon="5.34782">
        <ele>909.3</ele>
      </trkpt>
      <trkpt lat="44.43195" lon="5.34779">
        <ele>914.2</ele>
        <time>2026-05-17T22:20:52.000Z</time>
      </trkpt>
      <trkpt lat="44.43206" lon="5.34779">
        <ele>915.5</ele>
      </trkpt>
      <trkpt lat="44.43216" lon="5.34775">
        <ele>919</ele>
      </trkpt>
      <trkpt lat="44.43226" lon="5.34768">
        <ele>921.4</ele>
      </trkpt>
      <trkpt lat="44.43237" lon="5.34752">
        <ele>925.2</ele>
      </trkpt>
      <trkpt lat="44.43244" lon="5.34741">
        <ele>926.8</ele>
      </trkpt>
      <trkpt lat="44.43252" lon="5.34739">
        <ele>926.9</ele>
      </trkpt>
      <trkpt lat="44.43261" lon="5.3474">
        <ele>926</ele>
      </trkpt>
      <trkpt lat="44.43271" lon="5.34738">
        <ele>925.8</ele>
      </trkpt>
      <trkpt lat="44.43276" lon="5.34734">
        <ele>926.8</ele>
      </trkpt>
      <trkpt lat="44.43288" lon="5.3472">
        <ele>930.2</ele>
      </trkpt>
      <trkpt lat="44.4329" lon="5.34717">
        <ele>930.7</ele>
      </trkpt>
      <trkpt lat="44.43297" lon="5.34713">
        <ele>931.4</ele>
      </trkpt>
      <trkpt lat="44.4331" lon="5.34708">
        <ele>932.7</ele>
      </trkpt>
      <trkpt lat="44.43314" lon="5.34704">
        <ele>933.6</ele>
        <time>2026-05-17T22:26:29.000Z</time>
      </trkpt>
      <trkpt lat="44.43326" lon="5.34696">
        <ele>936.2</ele>
      </trkpt>
      <trkpt lat="44.43331" lon="5.34695">
        <ele>936.7</ele>
      </trkpt>
      <trkpt lat="44.43335" lon="5.34696">
        <ele>936.8</ele>
      </trkpt>
      <trkpt lat="44.43338" lon="5.34693">
        <ele>937.8</ele>
      </trkpt>
      <trkpt lat="44.4334" lon="5.34688">
        <ele>938.5</ele>
      </trkpt>
      <trkpt lat="44.43342" lon="5.34688">
        <ele>938.9</ele>
      </trkpt>
      <trkpt lat="44.43352" lon="5.34683">
        <ele>940.8</ele>
      </trkpt>
      <trkpt lat="44.43356" lon="5.34683">
        <ele>941.4</ele>
      </trkpt>
      <trkpt lat="44.4336" lon="5.34688">
        <ele>941.5</ele>
      </trkpt>
      <trkpt lat="44.43364" lon="5.34689">
        <ele>942.4</ele>
        <time>2026-05-17T22:28:47.000Z</time>
      </trkpt>
      <trkpt lat="44.43367" lon="5.34686">
        <ele>943.3</ele>
      </trkpt>
      <trkpt lat="44.43371" lon="5.34678">
        <ele>945</ele>
      </trkpt>
      <trkpt lat="44.43376" lon="5.34674">
        <ele>946.6</ele>
        <time>2026-05-17T22:31:26.000Z</time>
      </trkpt>
      <trkpt lat="44.43384" lon="5.34661">
        <ele>948.5</ele>
      </trkpt>
      <trkpt lat="44.43388" lon="5.34649">
        <ele>948.5</ele>
      </trkpt>
      <trkpt lat="44.43392" lon="5.34645">
        <ele>949.3</ele>
      </trkpt>
      <trkpt lat="44.43398" lon="5.34644">
        <ele>950.9</ele>
      </trkpt>
      <trkpt lat="44.43403" lon="5.34645">
        <ele>952.5</ele>
      </trkpt>
      <trkpt lat="44.43407" lon="5.3465">
        <ele>954</ele>
      </trkpt>
      <trkpt lat="44.43412" lon="5.34665">
        <ele>956.6</ele>
      </trkpt>
      <trkpt lat="44.43419" lon="5.34676">
        <ele>958.7</ele>
      </trkpt>
      <trkpt lat="44.43425" lon="5.34686">
        <ele>961.3</ele>
        <time>2026-05-17T22:33:03.000Z</time>
      </trkpt>
      <trkpt lat="44.43432" lon="5.34693">
        <ele>963.9</ele>
      </trkpt>
      <trkpt lat="44.43441" lon="5.34699">
        <ele>969</ele>
        <time>2026-05-17T22:34:39.000Z</time>
      </trkpt>
      <trkpt lat="44.43441" lon="5.34704">
        <ele>964.4</ele>
      </trkpt>
      <trkpt lat="44.43442" lon="5.34714">
        <ele>962</ele>
      </trkpt>
      <trkpt lat="44.43444" lon="5.3472">
        <ele>960.8</ele>
      </trkpt>
      <trkpt lat="44.43449" lon="5.34722">
        <ele>959.6</ele>
      </trkpt>
      <trkpt lat="44.43454" lon="5.34722">
        <ele>959.4</ele>
      </trkpt>
      <trkpt lat="44.43466" lon="5.34712">
        <ele>963.9</ele>
        <time>2026-05-17T22:35:47.000Z</time>
      </trkpt>
      <trkpt lat="44.43476" lon="5.34706">
        <ele>966.5</ele>
      </trkpt>
      <trkpt lat="44.43475" lon="5.34705">
        <ele>967.4</ele>
      </trkpt>
      <trkpt lat="44.4348" lon="5.34702">
        <ele>968.5</ele>
      </trkpt>
      <trkpt lat="44.43485" lon="5.34701">
        <ele>968.1</ele>
      </trkpt>
      <trkpt lat="44.43497" lon="5.34693">
        <ele>971.9</ele>
      </trkpt>
      <trkpt lat="44.43506" lon="5.34688">
        <ele>973.9</ele>
      </trkpt>
      <trkpt lat="44.43512" lon="5.34689">
        <ele>973.7</ele>
      </trkpt>
      <trkpt lat="44.43515" lon="5.34686">
        <ele>975</ele>
        <time>2026-05-17T22:37:40.000Z</time>
      </trkpt>
      <trkpt lat="44.43521" lon="5.34687">
        <ele>975.2</ele>
      </trkpt>
      <trkpt lat="44.4353" lon="5.34675">
        <ele>981.5</ele>
      </trkpt>
      <trkpt lat="44.43535" lon="5.3467">
        <ele>984.3</ele>
      </trkpt>
      <trkpt lat="44.43539" lon="5.34667">
        <ele>986</ele>
      </trkpt>
      <trkpt lat="44.43554" lon="5.34663">
        <ele>988.3</ele>
      </trkpt>
      <trkpt lat="44.43576" lon="5.34657">
        <ele>991.9</ele>
        <time>2026-05-17T22:41:23.000Z</time>
      </trkpt>
      <trkpt lat="44.4358" lon="5.34649">
        <ele>993.8</ele>
      </trkpt>
      <trkpt lat="44.4359" lon="5.34652">
        <ele>994.8</ele>
      </trkpt>
      <trkpt lat="44.43601" lon="5.34651">
        <ele>997</ele>
      </trkpt>
      <trkpt lat="44.43614" lon="5.34651">
        <ele>999</ele>
      </trkpt>
      <trkpt lat="44.43618" lon="5.34657">
        <ele>998.1</ele>
      </trkpt>
      <trkpt lat="44.43621" lon="5.34658">
        <ele>997.9</ele>
        <time>2026-05-17T22:43:31.000Z</time>
      </trkpt>
      <trkpt lat="44.43624" lon="5.34655">
        <ele>998.8</ele>
      </trkpt>
      <trkpt lat="44.43629" lon="5.34653">
        <ele>999.6</ele>
      </trkpt>
      <trkpt lat="44.43635" lon="5.34646">
        <ele>1002.2</ele>
      </trkpt>
      <trkpt lat="44.43639" lon="5.34644">
        <ele>1003.2</ele>
      </trkpt>
      <trkpt lat="44.43643" lon="5.34647">
        <ele>1002</ele>
      </trkpt>
      <trkpt lat="44.4365" lon="5.34646">
        <ele>1001.9</ele>
      </trkpt>
      <trkpt lat="44.43659" lon="5.3464">
        <ele>1003.9</ele>
      </trkpt>
      <trkpt lat="44.43665" lon="5.34638">
        <ele>1004.3</ele>
      </trkpt>
      <trkpt lat="44.43672" lon="5.34633">
        <ele>1005.9</ele>
      </trkpt>
      <trkpt lat="44.43673" lon="5.34627">
        <ele>1007.4</ele>
        <time>2026-05-17T22:45:39.000Z</time>
      </trkpt>
      <trkpt lat="44.43678" lon="5.34623">
        <ele>1009.1</ele>
      </trkpt>
      <trkpt lat="44.43682" lon="5.34623">
        <ele>1009.6</ele>
      </trkpt>
      <trkpt lat="44.43688" lon="5.34622">
        <ele>1010.6</ele>
      </trkpt>
      <trkpt lat="44.43695" lon="5.34624">
        <ele>1010.3</ele>
      </trkpt>
      <trkpt lat="44.43698" lon="5.34624">
        <ele>1011</ele>
      </trkpt>
      <trkpt lat="44.43707" lon="5.34612">
        <ele>1017.1</ele>
      </trkpt>
      <trkpt lat="44.43711" lon="5.3461">
        <ele>1018.2</ele>
      </trkpt>
      <trkpt lat="44.43719" lon="5.34604">
        <ele>1020.4</ele>
      </trkpt>
      <trkpt lat="44.43728" lon="5.34594">
        <ele>1023.2</ele>
      </trkpt>
      <trkpt lat="44.4373" lon="5.34593">
        <ele>1023.6</ele>
      </trkpt>
      <trkpt lat="44.43733" lon="5.34596">
        <ele>1023.6</ele>
      </trkpt>
      <trkpt lat="44.43735" lon="5.34601">
        <ele>1023.1</ele>
      </trkpt>
      <trkpt lat="44.43738" lon="5.34603">
        <ele>1023</ele>
        <time>2026-05-17T22:49:54.000Z</time>
      </trkpt>
      <trkpt lat="44.43741" lon="5.34605">
        <ele>1023.1</ele>
      </trkpt>
      <trkpt lat="44.43746" lon="5.34605">
        <ele>1023.6</ele>
      </trkpt>
      <trkpt lat="44.43751" lon="5.34608">
        <ele>1023.6</ele>
      </trkpt>
      <trkpt lat="44.43755" lon="5.34608">
        <ele>1023.6</ele>
      </trkpt>
      <trkpt lat="44.4376" lon="5.34609">
        <ele>1023.5</ele>
      </trkpt>
      <trkpt lat="44.43762" lon="5.34607">
        <ele>1023.8</ele>
      </trkpt>
      <trkpt lat="44.43766" lon="5.34607">
        <ele>1023.8</ele>
      </trkpt>
      <trkpt lat="44.4377" lon="5.34604">
        <ele>1024.6</ele>
      </trkpt>
      <trkpt lat="44.43772" lon="5.34604">
        <ele>1024.7</ele>
      </trkpt>
      <trkpt lat="44.43782" lon="5.34599">
        <ele>1026</ele>
        <time>2026-05-17T22:51:08.000Z</time>
      </trkpt>
      <trkpt lat="44.43785" lon="5.34601">
        <ele>1025.2</ele>
      </trkpt>
      <trkpt lat="44.43788" lon="5.34597">
        <ele>1026.3</ele>
      </trkpt>
      <trkpt lat="44.43791" lon="5.34594">
        <ele>1026.9</ele>
      </trkpt>
      <trkpt lat="44.43793" lon="5.3459">
        <ele>1028.2</ele>
      </trkpt>
      <trkpt lat="44.43797" lon="5.34584">
        <ele>1029.8</ele>
      </trkpt>
      <trkpt lat="44.43801" lon="5.34582">
        <ele>1030.1</ele>
      </trkpt>
      <trkpt lat="44.43812" lon="5.34569">
        <ele>1031</ele>
      </trkpt>
      <trkpt lat="44.43817" lon="5.34567">
        <ele>1031.3</ele>
        <time>2026-05-17T22:53:20.000Z</time>
      </trkpt>
      <trkpt lat="44.43839" lon="5.34556">
        <ele>1032.8</ele>
      </trkpt>
      <trkpt lat="44.43845" lon="5.34549">
        <ele>1032.6</ele>
      </trkpt>
      <trkpt lat="44.43856" lon="5.34548">
        <ele>1032.6</ele>
      </trkpt>
      <trkpt lat="44.43862" lon="5.34549">
        <ele>1032.3</ele>
      </trkpt>
      <trkpt lat="44.43866" lon="5.34545">
        <ele>1031.7</ele>
      </trkpt>
      <trkpt lat="44.4387" lon="5.34543">
        <ele>1031.2</ele>
      </trkpt>
      <trkpt lat="44.43877" lon="5.34533">
        <ele>1031.9</ele>
      </trkpt>
      <trkpt lat="44.43886" lon="5.34523">
        <ele>1032.5</ele>
        <time>2026-05-17T22:54:27.000Z</time>
      </trkpt>
      <trkpt lat="44.43892" lon="5.3452">
        <ele>1031.8</ele>
      </trkpt>
      <trkpt lat="44.439" lon="5.345">
        <ele>1033.2</ele>
      </trkpt>
      <trkpt lat="44.43899" lon="5.34497">
        <ele>1033.3</ele>
      </trkpt>
      <trkpt lat="44.43904" lon="5.34481">
        <ele>1033.7</ele>
      </trkpt>
      <trkpt lat="44.43911" lon="5.34469">
        <ele>1034.2</ele>
      </trkpt>
      <trkpt lat="44.43915" lon="5.34461">
        <ele>1033.7</ele>
        <time>2026-05-17T22:56:03.000Z</time>
      </trkpt>
      <trkpt lat="44.43919" lon="5.34445">
        <ele>1032</ele>
      </trkpt>
      <trkpt lat="44.43926" lon="5.3443">
        <ele>1028.9</ele>
      </trkpt>
      <trkpt lat="44.4393" lon="5.34418">
        <ele>1026.3</ele>
      </trkpt>
      <trkpt lat="44.4393" lon="5.34412">
        <ele>1025.1</ele>
      </trkpt>
      <trkpt lat="44.43929" lon="5.344">
        <ele>1022.6</ele>
      </trkpt>
      <trkpt lat="44.43926" lon="5.34386">
        <ele>1020</ele>
        <time>2026-05-17T22:56:59.000Z</time>
      </trkpt>
      <trkpt lat="44.43927" lon="5.34377">
        <ele>1017.7</ele>
      </trkpt>
      <trkpt lat="44.43932" lon="5.34373">
        <ele>1016.4</ele>
      </trkpt>
      <trkpt lat="44.43933" lon="5.34369">
        <ele>1015.5</ele>
      </trkpt>
      <trkpt lat="44.43932" lon="5.34364">
        <ele>1014.4</ele>
      </trkpt>
      <trkpt lat="44.43929" lon="5.34358">
        <ele>1013.5</ele>
      </trkpt>
      <trkpt lat="44.4393" lon="5.3435">
        <ele>1012</ele>
        <time>2026-05-17T22:57:34.000Z</time>
      </trkpt>
      <trkpt lat="44.43929" lon="5.34331">
        <ele>1008.6</ele>
      </trkpt>
      <trkpt lat="44.43926" lon="5.34318">
        <ele>1006.5</ele>
      </trkpt>
      <trkpt lat="44.43924" lon="5.34313">
        <ele>1005.7</ele>
      </trkpt>
      <trkpt lat="44.43923" lon="5.34305">
        <ele>1004.2</ele>
        <time>2026-05-17T22:58:17.000Z</time>
      </trkpt>
      <trkpt lat="44.43919" lon="5.34301">
        <ele>1003.5</ele>
      </trkpt>
      <trkpt lat="44.43918" lon="5.34295">
        <ele>1002.2</ele>
      </trkpt>
      <trkpt lat="44.43915" lon="5.34287">
        <ele>999.9</ele>
      </trkpt>
      <trkpt lat="44.43916" lon="5.34273">
        <ele>996.6</ele>
      </trkpt>
      <trkpt lat="44.43914" lon="5.34256">
        <ele>991.4</ele>
      </trkpt>
      <trkpt lat="44.43913" lon="5.34254">
        <ele>990.8</ele>
      </trkpt>
      <trkpt lat="44.43911" lon="5.34253">
        <ele>990.3</ele>
      </trkpt>
      <trkpt lat="44.43911" lon="5.34251">
        <ele>989.6</ele>
      </trkpt>
      <trkpt lat="44.43911" lon="5.34246">
        <ele>988.3</ele>
      </trkpt>
      <trkpt lat="44.43908" lon="5.34234">
        <ele>985.1</ele>
        <time>2026-05-17T22:59:18.000Z</time>
      </trkpt>
      <trkpt lat="44.43904" lon="5.34231">
        <ele>984</ele>
      </trkpt>
      <trkpt lat="44.439" lon="5.34224">
        <ele>982.3</ele>
      </trkpt>
      <trkpt lat="44.43898" lon="5.34214">
        <ele>980</ele>
      </trkpt>
      <trkpt lat="44.43899" lon="5.34209">
        <ele>978.9</ele>
      </trkpt>
      <trkpt lat="44.43898" lon="5.34202">
        <ele>977.5</ele>
      </trkpt>
      <trkpt lat="44.43899" lon="5.34188">
        <ele>975.1</ele>
      </trkpt>
      <trkpt lat="44.439" lon="5.34182">
        <ele>974.3</ele>
      </trkpt>
      <trkpt lat="44.43898" lon="5.34172">
        <ele>973</ele>
      </trkpt>
      <trkpt lat="44.43897" lon="5.34147">
        <ele>969.8</ele>
        <time>2026-05-17T23:00:37.000Z</time>
      </trkpt>
      <trkpt lat="44.43896" lon="5.34134">
        <ele>968.5</ele>
      </trkpt>
      <trkpt lat="44.4388" lon="5.34105">
        <ele>966.9</ele>
      </trkpt>
      <trkpt lat="44.43875" lon="5.34089">
        <ele>966.5</ele>
      </trkpt>
      <trkpt lat="44.43872" lon="5.3407">
        <ele>967.7</ele>
      </trkpt>
      <trkpt lat="44.43874" lon="5.34054">
        <ele>968.7</ele>
        <time>2026-05-17T23:01:33.000Z</time>
      </trkpt>
      <trkpt lat="44.43877" lon="5.3403">
        <ele>970</ele>
      </trkpt>
      <trkpt lat="44.4388" lon="5.34023">
        <ele>969.9</ele>
      </trkpt>
      <trkpt lat="44.43886" lon="5.34015">
        <ele>968.9</ele>
      </trkpt>
      <trkpt lat="44.43895" lon="5.34011">
        <ele>967.1</ele>
        <time>2026-05-17T23:02:01.000Z</time>
      </trkpt>
      <trkpt lat="44.43905" lon="5.34016">
        <ele>964.1</ele>
      </trkpt>
      <trkpt lat="44.43911" lon="5.34016">
        <ele>962.5</ele>
      </trkpt>
      <trkpt lat="44.43919" lon="5.34012">
        <ele>961.7</ele>
      </trkpt>
      <trkpt lat="44.43929" lon="5.34009">
        <ele>962.1</ele>
      </trkpt>
      <trkpt lat="44.43941" lon="5.34011">
        <ele>960.8</ele>
        <time>2026-05-17T23:03:26.000Z</time>
      </trkpt>
      <trkpt lat="44.43954" lon="5.34016">
        <ele>959.8</ele>
      </trkpt>
      <trkpt lat="44.4396" lon="5.34017">
        <ele>960.5</ele>
        <time>2026-05-17T23:04:30.000Z</time>
      </trkpt>
      <trkpt lat="44.43975" lon="5.34022">
        <ele>959.5</ele>
      </trkpt>
      <trkpt lat="44.44" lon="5.34035">
        <ele>955.6</ele>
      </trkpt>
      <trkpt lat="44.44019" lon="5.34043">
        <ele>952.1</ele>
        <time>2026-05-17T23:05:45.000Z</time>
      </trkpt>
      <trkpt lat="44.44037" lon="5.34048">
        <ele>949.9</ele>
        <time>2026-05-17T23:06:26.000Z</time>
      </trkpt>
      <trkpt lat="44.4405" lon="5.34043">
        <ele>952.2</ele>
      </trkpt>
      <trkpt lat="44.44067" lon="5.34037">
        <ele>953.1</ele>
        <time>2026-05-17T23:06:59.000Z</time>
      </trkpt>
      <trkpt lat="44.44099" lon="5.34038">
        <ele>948.2</ele>
      </trkpt>
      <trkpt lat="44.44127" lon="5.34047">
        <ele>941.9</ele>
      </trkpt>
      <trkpt lat="44.44136" lon="5.34059">
        <ele>937.2</ele>
        <time>2026-05-17T23:08:08.000Z</time>
      </trkpt>
      <trkpt lat="44.44157" lon="5.34086">
        <ele>928.8</ele>
      </trkpt>
      <trkpt lat="44.44171" lon="5.34107">
        <ele>922.9</ele>
        <time>2026-05-17T23:08:44.000Z</time>
      </trkpt>
      <trkpt lat="44.44184" lon="5.34124">
        <ele>918.1</ele>
      </trkpt>
      <trkpt lat="44.44189" lon="5.34132">
        <ele>916</ele>
      </trkpt>
      <trkpt lat="44.44199" lon="5.34162">
        <ele>907.8</ele>
      </trkpt>
      <trkpt lat="44.44206" lon="5.34176">
        <ele>903.9</ele>
        <time>2026-05-17T23:09:58.000Z</time>
      </trkpt>
      <trkpt lat="44.44212" lon="5.3418">
        <ele>902.3</ele>
      </trkpt>
      <trkpt lat="44.44221" lon="5.34195">
        <ele>898.1</ele>
      </trkpt>
      <trkpt lat="44.44222" lon="5.342">
        <ele>896.5</ele>
      </trkpt>
      <trkpt lat="44.44222" lon="5.34223">
        <ele>890.9</ele>
        <time>2026-05-17T23:10:36.000Z</time>
      </trkpt>
      <trkpt lat="44.44226" lon="5.34249">
        <ele>885.8</ele>
      </trkpt>
      <trkpt lat="44.44223" lon="5.34259">
        <ele>884.3</ele>
      </trkpt>
      <trkpt lat="44.44216" lon="5.34273">
        <ele>882.3</ele>
      </trkpt>
      <trkpt lat="44.44214" lon="5.34279">
        <ele>881.4</ele>
      </trkpt>
      <trkpt lat="44.44213" lon="5.34285">
        <ele>880.4</ele>
      </trkpt>
      <trkpt lat="44.44214" lon="5.34288">
        <ele>879.8</ele>
      </trkpt>
      <trkpt lat="44.4422" lon="5.34289">
        <ele>879.2</ele>
        <time>2026-05-17T23:11:46.000Z</time>
      </trkpt>
      <trkpt lat="44.44227" lon="5.34288">
        <ele>879</ele>
        <time>2026-05-17T23:12:31.000Z</time>
      </trkpt>
      <trkpt lat="44.44239" lon="5.34282">
        <ele>879.6</ele>
      </trkpt>
      <trkpt lat="44.44243" lon="5.34278">
        <ele>880.3</ele>
      </trkpt>
      <trkpt lat="44.44247" lon="5.34275">
        <ele>880.5</ele>
      </trkpt>
      <trkpt lat="44.44251" lon="5.34276">
        <ele>880.3</ele>
      </trkpt>
      <trkpt lat="44.44259" lon="5.34279">
        <ele>880.1</ele>
      </trkpt>
      <trkpt lat="44.44264" lon="5.3428">
        <ele>880.1</ele>
      </trkpt>
      <trkpt lat="44.44277" lon="5.34289">
        <ele>878.9</ele>
      </trkpt>
      <trkpt lat="44.44281" lon="5.34289">
        <ele>879.1</ele>
      </trkpt>
      <trkpt lat="44.4429" lon="5.34296">
        <ele>878.3</ele>
        <time>2026-05-17T23:13:17.000Z</time>
      </trkpt>
      <trkpt lat="44.44306" lon="5.34304">
        <ele>877.3</ele>
      </trkpt>
      <trkpt lat="44.44338" lon="5.34315">
        <ele>875.1</ele>
      </trkpt>
      <trkpt lat="44.44347" lon="5.34316">
        <ele>874.8</ele>
      </trkpt>
      <trkpt lat="44.44353" lon="5.34319">
        <ele>873.9</ele>
      </trkpt>
      <trkpt lat="44.44357" lon="5.34321">
        <ele>873.2</ele>
      </trkpt>
      <trkpt lat="44.44372" lon="5.34322">
        <ele>873.1</ele>
      </trkpt>
      <trkpt lat="44.44383" lon="5.34321">
        <ele>873.5</ele>
      </trkpt>
      <trkpt lat="44.44386" lon="5.34323">
        <ele>873.1</ele>
      </trkpt>
      <trkpt lat="44.44389" lon="5.34328">
        <ele>872.2</ele>
      </trkpt>
      <trkpt lat="44.4439" lon="5.34335">
        <ele>870.6</ele>
      </trkpt>
      <trkpt lat="44.44391" lon="5.34344">
        <ele>868.5</ele>
        <time>2026-05-17T23:14:23.000Z</time>
      </trkpt>
      <trkpt lat="44.44388" lon="5.34358">
        <ele>864.8</ele>
      </trkpt>
      <trkpt lat="44.44382" lon="5.34379">
        <ele>859.1</ele>
        <time>2026-05-17T23:14:57.000Z</time>
      </trkpt>
      <trkpt lat="44.44378" lon="5.34391">
        <ele>855.6</ele>
      </trkpt>
      <trkpt lat="44.44372" lon="5.344">
        <ele>852.9</ele>
      </trkpt>
      <trkpt lat="44.44364" lon="5.34405">
        <ele>851</ele>
        <time>2026-05-17T23:15:48.000Z</time>
      </trkpt>
      <trkpt lat="44.44353" lon="5.34416">
        <ele>848.3</ele>
      </trkpt>
      <trkpt lat="44.44346" lon="5.34422">
        <ele>846.6</ele>
      </trkpt>
      <trkpt lat="44.4434" lon="5.34431">
        <ele>844</ele>
      </trkpt>
      <trkpt lat="44.44336" lon="5.34441">
        <ele>841.1</ele>
        <time>2026-05-17T23:16:09.000Z</time>
      </trkpt>
      <trkpt lat="44.44329" lon="5.34449">
        <ele>838.8</ele>
        <time>2026-05-17T23:16:33.000Z</time>
      </trkpt>
      <trkpt lat="44.44317" lon="5.34461">
        <ele>835.8</ele>
      </trkpt>
      <trkpt lat="44.4431" lon="5.34473">
        <ele>832.9</ele>
      </trkpt>
      <trkpt lat="44.44301" lon="5.34494">
        <ele>827.4</ele>
        <time>2026-05-17T23:17:06.000Z</time>
      </trkpt>
      <trkpt lat="44.44286" lon="5.34523">
        <ele>821.6</ele>
      </trkpt>
      <trkpt lat="44.44282" lon="5.34543">
        <ele>817.1</ele>
        <time>2026-05-17T23:17:59.000Z</time>
      </trkpt>
      <trkpt lat="44.44278" lon="5.34563">
        <ele>812.1</ele>
      </trkpt>
      <trkpt lat="44.44274" lon="5.34568">
        <ele>811.5</ele>
      </trkpt>
      <trkpt lat="44.44268" lon="5.34567">
        <ele>812.7</ele>
      </trkpt>
      <trkpt lat="44.44265" lon="5.34569">
        <ele>812.8</ele>
      </trkpt>
      <trkpt lat="44.44259" lon="5.34583">
        <ele>810.6</ele>
      </trkpt>
      <trkpt lat="44.44255" lon="5.34597">
        <ele>808.9</ele>
      </trkpt>
      <trkpt lat="44.44248" lon="5.34617">
        <ele>807.8</ele>
        <time>2026-05-17T23:19:13.000Z</time>
      </trkpt>
      <trkpt lat="44.44245" lon="5.34653">
        <ele>805.1</ele>
      </trkpt>
      <trkpt lat="44.44246" lon="5.34662">
        <ele>804.2</ele>
      </trkpt>
      <trkpt lat="44.44256" lon="5.34676">
        <ele>799.8</ele>
        <time>2026-05-17T23:19:52.000Z</time>
      </trkpt>
      <trkpt lat="44.44258" lon="5.34687">
        <ele>798.5</ele>
      </trkpt>
      <trkpt lat="44.44256" lon="5.34701">
        <ele>798</ele>
      </trkpt>
      <trkpt lat="44.44257" lon="5.34721">
        <ele>795.5</ele>
      </trkpt>
      <trkpt lat="44.44256" lon="5.34727">
        <ele>794.3</ele>
      </trkpt>
      <trkpt lat="44.44254" lon="5.34731">
        <ele>793.7</ele>
      </trkpt>
      <trkpt lat="44.44249" lon="5.34736">
        <ele>793.1</ele>
        <time>2026-05-17T23:21:03.000Z</time>
      </trkpt>
      <trkpt lat="44.44241" lon="5.34742">
        <ele>791.4</ele>
      </trkpt>
      <trkpt lat="44.44219" lon="5.34754">
        <ele>787</ele>
      </trkpt>
      <trkpt lat="44.44206" lon="5.34764">
        <ele>781.5</ele>
        <time>2026-05-17T23:21:59.000Z</time>
      </trkpt>
      <trkpt lat="44.44199" lon="5.34767">
        <ele>779.7</ele>
      </trkpt>
      <trkpt lat="44.44185" lon="5.34765">
        <ele>778.7</ele>
      </trkpt>
      <trkpt lat="44.44174" lon="5.3477">
        <ele>775.3</ele>
      </trkpt>
      <trkpt lat="44.4417" lon="5.34775">
        <ele>772.8</ele>
      </trkpt>
      <trkpt lat="44.4416" lon="5.34787">
        <ele>766.7</ele>
      </trkpt>
      <trkpt lat="44.44143" lon="5.34794">
        <ele>763.5</ele>
        <time>2026-05-17T23:23:08.000Z</time>
      </trkpt>
      <trkpt lat="44.44127" lon="5.34811">
        <ele>758.7</ele>
      </trkpt>
      <trkpt lat="44.44115" lon="5.34827">
        <ele>755.3</ele>
        <time>2026-05-17T23:24:07.000Z</time>
      </trkpt>
      <trkpt lat="44.44096" lon="5.34862">
        <ele>748</ele>
      </trkpt>
      <trkpt lat="44.4409" lon="5.34881">
        <ele>744</ele>
        <time>2026-05-17T23:24:55.000Z</time>
      </trkpt>
      <trkpt lat="44.44084" lon="5.34894">
        <ele>741.4</ele>
      </trkpt>
      <trkpt lat="44.44077" lon="5.34908">
        <ele>739.5</ele>
      </trkpt>
      <trkpt lat="44.44066" lon="5.34929">
        <ele>736.8</ele>
      </trkpt>
      <trkpt lat="44.44052" lon="5.34948">
        <ele>734.7</ele>
      </trkpt>
      <trkpt lat="44.44038" lon="5.34962">
        <ele>733.7</ele>
        <time>2026-05-17T23:26:20.000Z</time>
      </trkpt>
      <trkpt lat="44.44007" lon="5.3499">
        <ele>730.1</ele>
      </trkpt>
      <trkpt lat="44.44002" lon="5.34993">
        <ele>729.4</ele>
        <time>2026-05-17T23:27:41.000Z</time>
      </trkpt>
      <trkpt lat="44.43986" lon="5.35012">
        <ele>726.1</ele>
      </trkpt>
      <trkpt lat="44.43959" lon="5.3504">
        <ele>721</ele>
      </trkpt>
      <trkpt lat="44.43952" lon="5.35051">
        <ele>719.2</ele>
      </trkpt>
      <trkpt lat="44.43945" lon="5.35058">
        <ele>717.8</ele>
      </trkpt>
      <trkpt lat="44.43898" lon="5.35088">
        <ele>706.5</ele>
        <time>2026-05-17T23:29:51.000Z</time>
      </trkpt>
      <trkpt lat="44.43881" lon="5.35099">
        <ele>702.1</ele>
      </trkpt>
      <trkpt lat="44.43868" lon="5.35108">
        <ele>699.2</ele>
      </trkpt>
      <trkpt lat="44.43847" lon="5.35123">
        <ele>695.8</ele>
      </trkpt>
      <trkpt lat="44.4383" lon="5.35135">
        <ele>693.4</ele>
      </trkpt>
      <trkpt lat="44.43815" lon="5.35145">
        <ele>691.3</ele>
        <time>2026-05-17T23:31:37.000Z</time>
      </trkpt>
      <trkpt lat="44.43796" lon="5.35159">
        <ele>688.4</ele>
      </trkpt>
      <trkpt lat="44.4378" lon="5.35169">
        <ele>686.6</ele>
      </trkpt>
      <trkpt lat="44.43766" lon="5.35171">
        <ele>686.3</ele>
      </trkpt>
      <trkpt lat="44.43745" lon="5.3517">
        <ele>686.4</ele>
      </trkpt>
      <trkpt lat="44.43734" lon="5.35172">
        <ele>686.3</ele>
        <time>2026-05-17T23:33:12.000Z</time>
      </trkpt>
      <trkpt lat="44.43727" lon="5.35174">
        <ele>686.1</ele>
      </trkpt>
      <trkpt lat="44.43717" lon="5.3518">
        <ele>685.7</ele>
      </trkpt>
      <trkpt lat="44.43712" lon="5.3518">
        <ele>685.7</ele>
      </trkpt>
      <trkpt lat="44.43703" lon="5.35185">
        <ele>685.5</ele>
        <time>2026-05-17T23:34:23.000Z</time>
      </trkpt>
      <trkpt lat="44.43692" lon="5.35193">
        <ele>684.7</ele>
      </trkpt>
      <trkpt lat="44.43681" lon="5.352">
        <ele>682.8</ele>
      </trkpt>
      <trkpt lat="44.43673" lon="5.35202">
        <ele>681.6</ele>
      </trkpt>
      <trkpt lat="44.43662" lon="5.35207">
        <ele>679.9</ele>
      </trkpt>
      <trkpt lat="44.43654" lon="5.35212">
        <ele>678.8</ele>
        <time>2026-05-17T23:35:22.000Z</time>
      </trkpt>
      <trkpt lat="44.43627" lon="5.35241">
        <ele>674.7</ele>
        <time>2026-05-17T23:35:52.000Z</time>
      </trkpt>
      <trkpt lat="44.43611" lon="5.35252">
        <ele>672.8</ele>
      </trkpt>
      <trkpt lat="44.43595" lon="5.3526">
        <ele>671.1</ele>
        <time>2026-05-17T23:37:17.000Z</time>
      </trkpt>
      <trkpt lat="44.43575" lon="5.35265">
        <ele>669</ele>
      </trkpt>
      <trkpt lat="44.43558" lon="5.35267">
        <ele>667.1</ele>
      </trkpt>
      <trkpt lat="44.43546" lon="5.3527">
        <ele>664.9</ele>
        <time>2026-05-17T23:37:51.000Z</time>
      </trkpt>
      <trkpt lat="44.43541" lon="5.3527">
        <ele>664</ele>
      </trkpt>
      <trkpt lat="44.43529" lon="5.35268">
        <ele>661.9</ele>
      </trkpt>
      <trkpt lat="44.4351" lon="5.35268">
        <ele>659.2</ele>
      </trkpt>
      <trkpt lat="44.43494" lon="5.3527">
        <ele>656.8</ele>
        <time>2026-05-17T23:38:32.000Z</time>
      </trkpt>
      <trkpt lat="44.43486" lon="5.35275">
        <ele>655.1</ele>
      </trkpt>
      <trkpt lat="44.43484" lon="5.3528">
        <ele>653.9</ele>
        <time>2026-05-17T23:38:57.000Z</time>
      </trkpt>
      <trkpt lat="44.43485" lon="5.35288">
        <ele>652.6</ele>
      </trkpt>
      <trkpt lat="44.43491" lon="5.35298">
        <ele>651.6</ele>
      </trkpt>
      <trkpt lat="44.43488" lon="5.35302">
        <ele>650.7</ele>
        <time>2026-05-17T23:39:25.000Z</time>
      </trkpt>
      <trkpt lat="44.43469" lon="5.35323">
        <ele>646.4</ele>
        <time>2026-05-17T23:40:03.000Z</time>
      </trkpt>
      <trkpt lat="44.43455" lon="5.35341">
        <ele>644.1</ele>
      </trkpt>
      <trkpt lat="44.4345" lon="5.35342">
        <ele>644.1</ele>
      </trkpt>
      <trkpt lat="44.43448" lon="5.3534">
        <ele>644.3</ele>
      </trkpt>
      <trkpt lat="44.43444" lon="5.35332">
        <ele>645.1</ele>
      </trkpt>
      <trkpt lat="44.43441" lon="5.35327">
        <ele>645.3</ele>
      </trkpt>
      <trkpt lat="44.43439" lon="5.35324">
        <ele>645.2</ele>
      </trkpt>
      <trkpt lat="44.43435" lon="5.35324">
        <ele>645</ele>
        <time>2026-05-17T23:40:36.000Z</time>
      </trkpt>
      <trkpt lat="44.43423" lon="5.3532">
        <ele>644.4</ele>
      </trkpt>
      <trkpt lat="44.4341" lon="5.35312">
        <ele>643.8</ele>
        <time>2026-05-17T23:41:13.000Z</time>
      </trkpt>
      <trkpt lat="44.43393" lon="5.35306">
        <ele>642.4</ele>
      </trkpt>
      <trkpt lat="44.43386" lon="5.35299">
        <ele>642.5</ele>
      </trkpt>
      <trkpt lat="44.43384" lon="5.35275">
        <ele>644.8</ele>
        <time>2026-05-17T23:42:31.000Z</time>
      </trkpt>
      <trkpt lat="44.43382" lon="5.35257">
        <ele>646.6</ele>
      </trkpt>
      <trkpt lat="44.43378" lon="5.35249">
        <ele>647.5</ele>
      </trkpt>
      <trkpt lat="44.43368" lon="5.35233">
        <ele>650.1</ele>
      </trkpt>
      <trkpt lat="44.43361" lon="5.35232">
        <ele>650</ele>
      </trkpt>
      <trkpt lat="44.43355" lon="5.35233">
        <ele>649.5</ele>
      </trkpt>
      <trkpt lat="44.43349" lon="5.35237">
        <ele>648.7</ele>
        <time>2026-05-17T23:43:39.000Z</time>
      </trkpt>
      <trkpt lat="44.43344" lon="5.35239">
        <ele>648</ele>
      </trkpt>
      <trkpt lat="44.43339" lon="5.35239">
        <ele>648</ele>
      </trkpt>
      <trkpt lat="44.43336" lon="5.35238">
        <ele>648.1</ele>
        <time>2026-05-17T23:45:16.000Z</time>
      </trkpt>
      <trkpt lat="44.43334" lon="5.35231">
        <ele>649.5</ele>
      </trkpt>
      <trkpt lat="44.43337" lon="5.35222">
        <ele>651.2</ele>
      </trkpt>
      <trkpt lat="44.43336" lon="5.35217">
        <ele>652.2</ele>
      </trkpt>
      <trkpt lat="44.43332" lon="5.35211">
        <ele>653.6</ele>
      </trkpt>
      <trkpt lat="44.43328" lon="5.35202">
        <ele>655.6</ele>
      </trkpt>
      <trkpt lat="44.43321" lon="5.352">
        <ele>656.3</ele>
        <time>2026-05-17T23:46:30.000Z</time>
      </trkpt>
      <trkpt lat="44.43316" lon="5.35193">
        <ele>658</ele>
      </trkpt>
      <trkpt lat="44.43297" lon="5.35179">
        <ele>660.7</ele>
      </trkpt>
      <trkpt lat="44.43289" lon="5.35175">
        <ele>660.6</ele>
        <time>2026-05-17T23:47:00.000Z</time>
      </trkpt>
      <trkpt lat="44.43274" lon="5.35169">
        <ele>660</ele>
      </trkpt>
      <trkpt lat="44.43253" lon="5.3517">
        <ele>656.7</ele>
      </trkpt>
      <trkpt lat="44.4324" lon="5.35165">
        <ele>656.4</ele>
      </trkpt>
      <trkpt lat="44.43235" lon="5.35164">
        <ele>656.4</ele>
      </trkpt>
      <trkpt lat="44.43224" lon="5.35164">
        <ele>655</ele>
      </trkpt>
      <trkpt lat="44.43219" lon="5.35166">
        <ele>654</ele>
      </trkpt>
      <trkpt lat="44.43216" lon="5.35171">
        <ele>652.2</ele>
      </trkpt>
      <trkpt lat="44.43213" lon="5.3518">
        <ele>649.7</ele>
        <time>2026-05-17T23:48:07.000Z</time>
      </trkpt>
      <trkpt lat="44.43211" lon="5.35192">
        <ele>646.5</ele>
      </trkpt>
      <trkpt lat="44.43208" lon="5.35194">
        <ele>645.7</ele>
      </trkpt>
      <trkpt lat="44.43205" lon="5.35194">
        <ele>645.1</ele>
      </trkpt>
      <trkpt lat="44.432" lon="5.3519">
        <ele>645.8</ele>
      </trkpt>
      <trkpt lat="44.43198" lon="5.35191">
        <ele>645.3</ele>
      </trkpt>
      <trkpt lat="44.43193" lon="5.35195">
        <ele>643.9</ele>
      </trkpt>
      <trkpt lat="44.43188" lon="5.352">
        <ele>642.7</ele>
      </trkpt>
      <trkpt lat="44.43181" lon="5.35207">
        <ele>641.1</ele>
        <time>2026-05-17T23:48:52.000Z</time>
      </trkpt>
      <trkpt lat="44.43167" lon="5.35213">
        <ele>638.7</ele>
      </trkpt>
      <trkpt lat="44.43154" lon="5.35215">
        <ele>637.2</ele>
      </trkpt>
      <trkpt lat="44.43148" lon="5.3522">
        <ele>635.5</ele>
      </trkpt>
      <trkpt lat="44.43143" lon="5.35219">
        <ele>635</ele>
      </trkpt>
      <trkpt lat="44.43132" lon="5.35219">
        <ele>634.8</ele>
      </trkpt>
      <trkpt lat="44.43121" lon="5.35225">
        <ele>633.7</ele>
      </trkpt>
      <trkpt lat="44.43112" lon="5.35226">
        <ele>633.6</ele>
      </trkpt>
      <trkpt lat="44.43106" lon="5.35226">
        <ele>634.3</ele>
        <time>2026-05-17T23:50:07.000Z</time>
      </trkpt>
      <trkpt lat="44.43097" lon="5.35221">
        <ele>636.2</ele>
      </trkpt>
      <trkpt lat="44.43091" lon="5.35215">
        <ele>638.4</ele>
      </trkpt>
      <trkpt lat="44.43084" lon="5.35206">
        <ele>641</ele>
      </trkpt>
      <trkpt lat="44.43078" lon="5.35202">
        <ele>641.7</ele>
      </trkpt>
      <trkpt lat="44.43071" lon="5.35204">
        <ele>641.6</ele>
      </trkpt>
      <trkpt lat="44.43067" lon="5.35207">
        <ele>641.1</ele>
      </trkpt>
      <trkpt lat="44.43061" lon="5.3521">
        <ele>640.6</ele>
      </trkpt>
      <trkpt lat="44.43048" lon="5.35198">
        <ele>642.5</ele>
        <time>2026-05-17T23:52:26.000Z</time>
      </trkpt>
      <trkpt lat="44.43021" lon="5.35166">
        <ele>648.3</ele>
      </trkpt>
      <trkpt lat="44.43014" lon="5.3516">
        <ele>649.7</ele>
      </trkpt>
      <trkpt lat="44.43006" lon="5.35154">
        <ele>651.1</ele>
      </trkpt>
      <trkpt lat="44.42996" lon="5.3515">
        <ele>651.9</ele>
      </trkpt>
      <trkpt lat="44.42977" lon="5.35146">
        <ele>652.5</ele>
        <time>2026-05-17T23:55:09.000Z</time>
      </trkpt>
      <trkpt lat="44.42951" lon="5.35144">
        <ele>652.3</ele>
        <time>2026-05-17T23:56:54.000Z</time>
      </trkpt>
      <trkpt lat="44.42937" lon="5.35138">
        <ele>654.3</ele>
      </trkpt>
      <trkpt lat="44.42921" lon="5.3513">
        <ele>657.3</ele>
      </trkpt>
      <trkpt lat="44.42913" lon="5.35127">
        <ele>658.2</ele>
      </trkpt>
      <trkpt lat="44.429" lon="5.35127">
        <ele>658.3</ele>
      </trkpt>
      <trkpt lat="44.42873" lon="5.35135">
        <ele>656.3</ele>
        <time>2026-05-17T23:59:16.000Z</time>
      </trkpt>
      <trkpt lat="44.42853" lon="5.35121">
        <ele>662.7</ele>
      </trkpt>
      <trkpt lat="44.42843" lon="5.3512">
        <ele>664.5</ele>
      </trkpt>
      <trkpt lat="44.42831" lon="5.35122">
        <ele>664.5</ele>
        <time>2026-05-18T00:00:18.000Z</time>
      </trkpt>
      <trkpt lat="44.42798" lon="5.35131">
        <ele>663.7</ele>
      </trkpt>
      <trkpt lat="44.42779" lon="5.35135">
        <ele>664.5</ele>
      </trkpt>
      <trkpt lat="44.42757" lon="5.35141">
        <ele>666.7</ele>
      </trkpt>
      <trkpt lat="44.42749" lon="5.35141">
        <ele>668.2</ele>
        <time>2026-05-18T00:02:54.000Z</time>
      </trkpt>
      <trkpt lat="44.42728" lon="5.3514">
        <ele>673</ele>
      </trkpt>
      <trkpt lat="44.42716" lon="5.35136">
        <ele>677.5</ele>
      </trkpt>
      <trkpt lat="44.42712" lon="5.3514">
        <ele>676.3</ele>
      </trkpt>
      <trkpt lat="44.42701" lon="5.35145">
        <ele>675.5</ele>
      </trkpt>
      <trkpt lat="44.42688" lon="5.35148">
        <ele>676.3</ele>
        <time>2026-05-18T00:05:14.000Z</time>
      </trkpt>
      <trkpt lat="44.42664" lon="5.35155">
        <ele>677.7</ele>
      </trkpt>
      <trkpt lat="44.42652" lon="5.35162">
        <ele>678.4</ele>
        <time>2026-05-18T00:06:54.000Z</time>
      </trkpt>
      <trkpt lat="44.42633" lon="5.35177">
        <ele>679.7</ele>
      </trkpt>
      <trkpt lat="44.42628" lon="5.35191">
        <ele>676.7</ele>
      </trkpt>
      <trkpt lat="44.42623" lon="5.35195">
        <ele>677.1</ele>
      </trkpt>
      <trkpt lat="44.42599" lon="5.35208">
        <ele>682.9</ele>
        <time>2026-05-18T00:07:59.000Z</time>
      </trkpt>
      <trkpt lat="44.42584" lon="5.35214">
        <ele>685.7</ele>
      </trkpt>
      <trkpt lat="44.42559" lon="5.35227">
        <ele>683.2</ele>
      </trkpt>
      <trkpt lat="44.42538" lon="5.35237">
        <ele>678.7</ele>
        <time>2026-05-18T00:09:25.000Z</time>
      </trkpt>
      <trkpt lat="44.42517" lon="5.35241">
        <ele>674.9</ele>
      </trkpt>
      <trkpt lat="44.42505" lon="5.35252">
        <ele>669.2</ele>
      </trkpt>
      <trkpt lat="44.42493" lon="5.35267">
        <ele>663.5</ele>
      </trkpt>
      <trkpt lat="44.42489" lon="5.35269">
        <ele>662.4</ele>
      </trkpt>
      <trkpt lat="44.42482" lon="5.3527">
        <ele>661.2</ele>
        <time>2026-05-18T00:10:27.000Z</time>
      </trkpt>
      <trkpt lat="44.42477" lon="5.35266">
        <ele>661.2</ele>
      </trkpt>
      <trkpt lat="44.4246" lon="5.35264">
        <ele>658.3</ele>
      </trkpt>
      <trkpt lat="44.4245" lon="5.35268">
        <ele>655.4</ele>
        <time>2026-05-18T00:10:56.000Z</time>
      </trkpt>
      <trkpt lat="44.42445" lon="5.35265">
        <ele>654.9</ele>
        <time>2026-05-18T00:11:33.000Z</time>
      </trkpt>
      <trkpt lat="44.42426" lon="5.35254">
        <ele>653.7</ele>
      </trkpt>
      <trkpt lat="44.4241" lon="5.35247">
        <ele>652.4</ele>
      </trkpt>
      <trkpt lat="44.42396" lon="5.35242">
        <ele>650.8</ele>
        <time>2026-05-18T00:12:25.000Z</time>
      </trkpt>
      <trkpt lat="44.42388" lon="5.35237">
        <ele>651.2</ele>
      </trkpt>
      <trkpt lat="44.4238" lon="5.35226">
        <ele>652.7</ele>
      </trkpt>
      <trkpt lat="44.42365" lon="5.35215">
        <ele>652.8</ele>
      </trkpt>
      <trkpt lat="44.42355" lon="5.3521">
        <ele>652.1</ele>
      </trkpt>
      <trkpt lat="44.42347" lon="5.35208">
        <ele>651.6</ele>
      </trkpt>
      <trkpt lat="44.42342" lon="5.35208">
        <ele>650.9</ele>
      </trkpt>
      <trkpt lat="44.42335" lon="5.35212">
        <ele>648.8</ele>
        <time>2026-05-18T00:13:59.000Z</time>
      </trkpt>
      <trkpt lat="44.42318" lon="5.35217">
        <ele>647.5</ele>
      </trkpt>
      <trkpt lat="44.42308" lon="5.35218">
        <ele>647.3</ele>
      </trkpt>
      <trkpt lat="44.423" lon="5.3522">
        <ele>646.9</ele>
      </trkpt>
      <trkpt lat="44.42296" lon="5.35215">
        <ele>648.5</ele>
      </trkpt>
      <trkpt lat="44.42292" lon="5.3522">
        <ele>647.2</ele>
      </trkpt>
      <trkpt lat="44.4229" lon="5.35219">
        <ele>647.5</ele>
      </trkpt>
      <trkpt lat="44.42273" lon="5.35216">
        <ele>649</ele>
      </trkpt>
      <trkpt lat="44.42267" lon="5.35218">
        <ele>648.5</ele>
        <time>2026-05-18T00:15:40.000Z</time>
      </trkpt>
      <trkpt lat="44.4226" lon="5.35218">
        <ele>648.8</ele>
      </trkpt>
      <trkpt lat="44.42249" lon="5.35217">
        <ele>649.4</ele>
      </trkpt>
      <trkpt lat="44.4224" lon="5.35213">
        <ele>650</ele>
      </trkpt>
      <trkpt lat="44.42237" lon="5.35214">
        <ele>649.6</ele>
      </trkpt>
      <trkpt lat="44.42228" lon="5.35217">
        <ele>648.5</ele>
      </trkpt>
      <trkpt lat="44.42222" lon="5.35214">
        <ele>648.8</ele>
      </trkpt>
      <trkpt lat="44.42216" lon="5.35216">
        <ele>647.9</ele>
        <time>2026-05-18T00:16:52.000Z</time>
      </trkpt>
      <trkpt lat="44.42209" lon="5.35222">
        <ele>646.2</ele>
      </trkpt>
      <trkpt lat="44.42202" lon="5.35224">
        <ele>645</ele>
      </trkpt>
      <trkpt lat="44.42199" lon="5.35231">
        <ele>643.2</ele>
      </trkpt>
      <trkpt lat="44.42196" lon="5.35234">
        <ele>642.2</ele>
      </trkpt>
      <trkpt lat="44.42182" lon="5.35237">
        <ele>639.5</ele>
      </trkpt>
      <trkpt lat="44.42173" lon="5.35236">
        <ele>638.3</ele>
        <time>2026-05-18T00:17:39.000Z</time>
      </trkpt>
      <trkpt lat="44.42162" lon="5.35241">
        <ele>636.1</ele>
      </trkpt>
      <trkpt lat="44.42157" lon="5.35246">
        <ele>634.2</ele>
      </trkpt>
      <trkpt lat="44.42146" lon="5.35248">
        <ele>632.9</ele>
        <time>2026-05-18T00:18:17.000Z</time>
      </trkpt>
      <trkpt lat="44.42135" lon="5.35246">
        <ele>633.1</ele>
      </trkpt>
      <trkpt lat="44.42132" lon="5.35248">
        <ele>632.6</ele>
      </trkpt>
      <trkpt lat="44.42124" lon="5.35248">
        <ele>632.6</ele>
      </trkpt>
      <trkpt lat="44.42121" lon="5.3525">
        <ele>632.1</ele>
      </trkpt>
      <trkpt lat="44.42113" lon="5.35252">
        <ele>631.3</ele>
      </trkpt>
      <trkpt lat="44.421" lon="5.35252">
        <ele>629.4</ele>
      </trkpt>
      <trkpt lat="44.42094" lon="5.35249">
        <ele>629.3</ele>
      </trkpt>
      <trkpt lat="44.42084" lon="5.3525">
        <ele>627.2</ele>
      </trkpt>
      <trkpt lat="44.42072" lon="5.35244">
        <ele>626.8</ele>
      </trkpt>
      <trkpt lat="44.42063" lon="5.35245">
        <ele>625.1</ele>
      </trkpt>
      <trkpt lat="44.42056" lon="5.35244">
        <ele>624</ele>
        <time>2026-05-18T00:19:52.000Z</time>
      </trkpt>
      <trkpt lat="44.4205" lon="5.35241">
        <ele>623.8</ele>
      </trkpt>
      <trkpt lat="44.42041" lon="5.35242">
        <ele>622</ele>
      </trkpt>
      <trkpt lat="44.42038" lon="5.35246">
        <ele>619.9</ele>
      </trkpt>
      <trkpt lat="44.42028" lon="5.35245">
        <ele>618.8</ele>
      </trkpt>
      <trkpt lat="44.42024" lon="5.35242">
        <ele>619.2</ele>
      </trkpt>
      <trkpt lat="44.42004" lon="5.35236">
        <ele>618.4</ele>
      </trkpt>
      <trkpt lat="44.41995" lon="5.35236">
        <ele>617.8</ele>
      </trkpt>
      <trkpt lat="44.41992" lon="5.35233">
        <ele>618.8</ele>
      </trkpt>
      <trkpt lat="44.41985" lon="5.35229">
        <ele>619.9</ele>
      </trkpt>
      <trkpt lat="44.41983" lon="5.35231">
        <ele>619.2</ele>
      </trkpt>
      <trkpt lat="44.41978" lon="5.35229">
        <ele>619.4</ele>
      </trkpt>
      <trkpt lat="44.41971" lon="5.3523">
        <ele>618.8</ele>
        <time>2026-05-18T00:21:27.000Z</time>
      </trkpt>
      <trkpt lat="44.41962" lon="5.35228">
        <ele>620</ele>
      </trkpt>
      <trkpt lat="44.41953" lon="5.35223">
        <ele>622.5</ele>
      </trkpt>
      <trkpt lat="44.41947" lon="5.35225">
        <ele>621.7</ele>
        <time>2026-05-18T00:22:19.000Z</time>
      </trkpt>
      <trkpt lat="44.41933" lon="5.35225">
        <ele>620.9</ele>
      </trkpt>
      <trkpt lat="44.41924" lon="5.35219">
        <ele>621.7</ele>
      </trkpt>
      <trkpt lat="44.41915" lon="5.35218">
        <ele>620.8</ele>
      </trkpt>
      <trkpt lat="44.41903" lon="5.35224">
        <ele>617.1</ele>
      </trkpt>
      <trkpt lat="44.41894" lon="5.35232">
        <ele>614.1</ele>
        <time>2026-05-18T00:23:04.000Z</time>
      </trkpt>
      <trkpt lat="44.4189" lon="5.35239">
        <ele>612.1</ele>
      </trkpt>
      <trkpt lat="44.41884" lon="5.35239">
        <ele>610.7</ele>
      </trkpt>
      <trkpt lat="44.4188" lon="5.35246">
        <ele>608.1</ele>
      </trkpt>
      <trkpt lat="44.41877" lon="5.35254">
        <ele>605.8</ele>
      </trkpt>
      <trkpt lat="44.41875" lon="5.35255">
        <ele>604.9</ele>
      </trkpt>
      <trkpt lat="44.41872" lon="5.35259">
        <ele>603.2</ele>
      </trkpt>
      <trkpt lat="44.41871" lon="5.35265">
        <ele>601.7</ele>
      </trkpt>
      <trkpt lat="44.41872" lon="5.35275">
        <ele>599.8</ele>
      </trkpt>
      <trkpt lat="44.41871" lon="5.35285">
        <ele>597.1</ele>
      </trkpt>
      <trkpt lat="44.41867" lon="5.35294">
        <ele>594</ele>
      </trkpt>
      <trkpt lat="44.41864" lon="5.35299">
        <ele>592.3</ele>
        <time>2026-05-18T00:24:10.000Z</time>
      </trkpt>
      <trkpt lat="44.41853" lon="5.35308">
        <ele>586.4</ele>
      </trkpt>
      <trkpt lat="44.41848" lon="5.35307">
        <ele>585</ele>
        <time>2026-05-18T00:24:47.000Z</time>
      </trkpt>
      <trkpt lat="44.41826" lon="5.35306">
        <ele>577.3</ele>
      </trkpt>
      <trkpt lat="44.41816" lon="5.35303">
        <ele>574.4</ele>
      </trkpt>
      <trkpt lat="44.41808" lon="5.35294">
        <ele>573.5</ele>
        <time>2026-05-18T00:25:22.000Z</time>
      </trkpt>
      <trkpt lat="44.41799" lon="5.35286">
        <ele>571.9</ele>
      </trkpt>
      <trkpt lat="44.41793" lon="5.35285">
        <ele>570.6</ele>
      </trkpt>
      <trkpt lat="44.4179" lon="5.35281">
        <ele>570.8</ele>
      </trkpt>
      <trkpt lat="44.41785" lon="5.35276">
        <ele>570.7</ele>
      </trkpt>
      <trkpt lat="44.41781" lon="5.35275">
        <ele>569.7</ele>
      </trkpt>
      <trkpt lat="44.41775" lon="5.35277">
        <ele>567.6</ele>
      </trkpt>
      <trkpt lat="44.41764" lon="5.35277">
        <ele>564.2</ele>
      </trkpt>
      <trkpt lat="44.41761" lon="5.35273">
        <ele>564.8</ele>
      </trkpt>
      <trkpt lat="44.41757" lon="5.35272">
        <ele>564</ele>
      </trkpt>
      <trkpt lat="44.41753" lon="5.35268">
        <ele>564.1</ele>
        <time>2026-05-18T00:26:22.000Z</time>
      </trkpt>
      <trkpt lat="44.41739" lon="5.3525">
        <ele>565</ele>
      </trkpt>
      <trkpt lat="44.41718" lon="5.35254">
        <ele>557.1</ele>
        <time>2026-05-18T00:27:01.000Z</time>
      </trkpt>
      <trkpt lat="44.41708" lon="5.35259">
        <ele>553.7</ele>
      </trkpt>
      <trkpt lat="44.41697" lon="5.35267">
        <ele>549.2</ele>
        <time>2026-05-18T00:27:26.000Z</time>
      </trkpt>
      <trkpt lat="44.41683" lon="5.35284">
        <ele>542.5</ele>
      </trkpt>
      <trkpt lat="44.41689" lon="5.35298">
        <ele>539.9</ele>
      </trkpt>
      <trkpt lat="44.41692" lon="5.35314">
        <ele>536.6</ele>
      </trkpt>
      <trkpt lat="44.41687" lon="5.35324">
        <ele>533.6</ele>
        <time>2026-05-18T00:27:58.000Z</time>
      </trkpt>
      <trkpt lat="44.41672" lon="5.35332">
        <ele>528.4</ele>
      </trkpt>
      <trkpt lat="44.41666" lon="5.35333">
        <ele>526.9</ele>
      </trkpt>
      <trkpt lat="44.41664" lon="5.35336">
        <ele>525.9</ele>
      </trkpt>
      <trkpt lat="44.41662" lon="5.35338">
        <ele>525</ele>
      </trkpt>
      <trkpt lat="44.41658" lon="5.35336">
        <ele>525</ele>
      </trkpt>
      <trkpt lat="44.41652" lon="5.35342">
        <ele>522.6</ele>
      </trkpt>
      <trkpt lat="44.41642" lon="5.35339">
        <ele>522</ele>
      </trkpt>
      <trkpt lat="44.41636" lon="5.35341">
        <ele>520.6</ele>
      </trkpt>
      <trkpt lat="44.4162" lon="5.35339">
        <ele>519.4</ele>
        <time>2026-05-18T00:29:24.000Z</time>
      </trkpt>
      <trkpt lat="44.41566" lon="5.35338">
        <ele>509.9</ele>
      </trkpt>
      <trkpt lat="44.41557" lon="5.35337">
        <ele>508.3</ele>
      </trkpt>
      <trkpt lat="44.41555" lon="5.35341">
        <ele>506.9</ele>
        <time>2026-05-18T00:30:35.000Z</time>
      </trkpt>
      <trkpt lat="44.41587" lon="5.35393">
        <ele>499.4</ele>
      </trkpt>
      <trkpt lat="44.41602" lon="5.35409">
        <ele>497.1</ele>
        <time>2026-05-18T00:31:48.000Z</time>
      </trkpt>
      <trkpt lat="44.41562" lon="5.35416">
        <ele>488.5</ele>
      </trkpt>
      <trkpt lat="44.4156" lon="5.35424">
        <ele>486.3</ele>
      </trkpt>
      <trkpt lat="44.41558" lon="5.35427">
        <ele>485.4</ele>
      </trkpt>
      <trkpt lat="44.41552" lon="5.35428">
        <ele>483.8</ele>
        <time>2026-05-18T00:32:47.000Z</time>
      </trkpt>
      <trkpt lat="44.41548" lon="5.35432">
        <ele>482.3</ele>
      </trkpt>
      <trkpt lat="44.41547" lon="5.35437">
        <ele>481.1</ele>
      </trkpt>
      <trkpt lat="44.41547" lon="5.35447">
        <ele>479.4</ele>
      </trkpt>
      <trkpt lat="44.41541" lon="5.35451">
        <ele>477.5</ele>
        <time>2026-05-18T00:33:18.000Z</time>
      </trkpt>
      <trkpt lat="44.41537" lon="5.35455">
        <ele>476.1</ele>
      </trkpt>
      <trkpt lat="44.4153" lon="5.35455">
        <ele>475.1</ele>
      </trkpt>
      <trkpt lat="44.41522" lon="5.35455">
        <ele>473.6</ele>
        <time>2026-05-18T00:33:33.000Z</time>
      </trkpt>
      <trkpt lat="44.41518" lon="5.35453">
        <ele>472.9</ele>
      </trkpt>
      <trkpt lat="44.4151" lon="5.35444">
        <ele>473.2</ele>
        <time>2026-05-18T00:34:04.000Z</time>
      </trkpt>
      <trkpt lat="44.4149" lon="5.35411">
        <ele>474.7</ele>
      </trkpt>
      <trkpt lat="44.41487" lon="5.35396">
        <ele>476.5</ele>
      </trkpt>
      <trkpt lat="44.4148" lon="5.35392">
        <ele>475.9</ele>
      </trkpt>
      <trkpt lat="44.41472" lon="5.35392">
        <ele>474.5</ele>
      </trkpt>
      <trkpt lat="44.41468" lon="5.3539">
        <ele>473.8</ele>
      </trkpt>
      <trkpt lat="44.41462" lon="5.35384">
        <ele>473.8</ele>
      </trkpt>
      <trkpt lat="44.41458" lon="5.35383">
        <ele>473.2</ele>
      </trkpt>
      <trkpt lat="44.41455" lon="5.35385">
        <ele>472.1</ele>
      </trkpt>
      <trkpt lat="44.41454" lon="5.35391">
        <ele>470.6</ele>
      </trkpt>
      <trkpt lat="44.41459" lon="5.35407">
        <ele>468.8</ele>
      </trkpt>
      <trkpt lat="44.41469" lon="5.35429">
        <ele>467</ele>
      </trkpt>
      <trkpt lat="44.41456" lon="5.35431">
        <ele>464</ele>
      </trkpt>
      <trkpt lat="44.41449" lon="5.35432">
        <ele>462.2</ele>
      </trkpt>
      <trkpt lat="44.41443" lon="5.35434">
        <ele>460.6</ele>
      </trkpt>
      <trkpt lat="44.41432" lon="5.35438">
        <ele>457.4</ele>
      </trkpt>
      <trkpt lat="44.41446" lon="5.35455">
        <ele>457.3</ele>
      </trkpt>
      <trkpt lat="44.41451" lon="5.35461">
        <ele>457.4</ele>
      </trkpt>
      <trkpt lat="44.41451" lon="5.35463">
        <ele>457.1</ele>
      </trkpt>
      <trkpt lat="44.41448" lon="5.35464">
        <ele>456.4</ele>
        <time>2026-05-18T00:35:12.000Z</time>
      </trkpt>
      <trkpt lat="44.41446" lon="5.35466">
        <ele>455.4</ele>
      </trkpt>
      <trkpt lat="44.41446" lon="5.35471">
        <ele>454.5</ele>
      </trkpt>
      <trkpt lat="44.41454" lon="5.3549">
        <ele>452.9</ele>
      </trkpt>
      <trkpt lat="44.41455" lon="5.35496">
        <ele>452.2</ele>
        <time>2026-05-18T00:35:37.000Z</time>
      </trkpt>
      <trkpt lat="44.41439" lon="5.35532">
        <ele>445.7</ele>
      </trkpt>
      <trkpt lat="44.41442" lon="5.35535">
        <ele>445.7</ele>
        <time>2026-05-18T00:36:02.000Z</time>
      </trkpt>
      <trkpt lat="44.41451" lon="5.35538">
        <ele>446</ele>
        <time>2026-05-18T00:36:14.000Z</time>
      </trkpt>
      <trkpt lat="44.41487" lon="5.35548">
        <ele>448</ele>
        <time>2026-05-18T00:37:17.000Z</time>
        <extensions>
          <visugpx:TrkExtension xmlns:visugpx="https://www.visugpx.com/editgpx/">
            <visugpx:node>1</visugpx:node>
            </visugpx:TrkExtension>
        </extensions>
      </trkpt>
    </trkseg>
  </trk>
</gpx>